Time;durP1;ratioP1;P1;durP2;ratioP2;P2;SDS_P1;SDS_P2;PMS_P1;PMS_P2;Temp;Humidity;BMP_temperature;BMP_pressure;BME280_temperature;BME280_humidity;BME280_pressure;Samples;Min_cycle;Max_cycle;Signal;HPM_P1;HPM_P2
2024/01/18 00:02:25;;;;;;;;;;;;;;;;;;5028053;28;20382;-72
2024/01/18 00:04:50;;;;;;;;;;;;;;;;;;5030238;28;19917;-73
2024/01/18 00:07:15;;;;;;;;;;;;;;;;;;5035175;28;19927;-72
2024/01/18 00:09:40;;;;;;;;;;;;;;;;;;5038902;28;19921;-73
2024/01/18 00:12:05;;;;;;;;;;;;;;;;;;5027368;28;19924;-73
2024/01/18 00:14:30;;;;;;;;;;;;;;;;;;5032125;28;20286;-73
2024/01/18 00:16:55;;;;;;;;;;;;;;;;;;5049022;28;19917;-72
2024/01/18 00:19:20;;;;;;;;;;;;;;;;;;5034071;28;19921;-72
2024/01/18 00:21:45;;;;;;;;;;;;;;;;;;5044573;28;19960;-73
2024/01/18 00:24:11;;;;;;;;;;;;;;;;;;5028752;28;19925;-73
2024/01/18 00:26:36;;;;;;;;;;;;;;;;;;5037653;28;20293;-73
2024/01/18 00:29:01;;;;;;;;;;;;;;;;;;5028995;28;19917;-73
2024/01/18 00:31:26;;;;;;;;;;;;;;;;;;5028102;28;19972;-73
2024/01/18 00:33:52;;;;;;;;;;;;;;;;;;5028800;28;19928;-72
2024/01/18 00:36:18;;;;;;;;;;;;;;;;;;5034473;28;20270;-73
2024/01/18 00:38:43;;;;;;;;;;;;;;;;;;5039565;28;20296;-72
2024/01/18 00:41:08;;;;;;;;;;;;;;;;;;5031355;28;20366;-73
2024/01/18 00:43:33;;;;;;;;;;;;;;;;;;5028047;28;19925;-73
2024/01/18 00:45:58;;;;;;;;;;;;;;;;;;5045469;28;19943;-73
2024/01/18 00:48:23;;;;;;;;;;;;;;;;;;5037750;28;19917;-72
2024/01/18 00:50:48;;;;;;;;;;;;;;;;;;5027535;28;19965;-73
2024/01/18 00:53:13;;;;;;;;;;;;;;;;;;5029435;28;20047;-73
2024/01/18 00:55:38;;;;;;;;;;;;;;;;;;5029237;28;19940;-72
2024/01/18 00:58:03;;;;;;;;;;;;;;;;;;5028659;28;19917;-72
2024/01/18 01:00:29;;;;;;;;;;;;;;;;;;5029333;28;19917;-73
2024/01/18 01:02:54;;;;;;;;;;;;;;;;;;5023052;28;19925;-73
2024/01/18 01:05:19;;;;;;;;;;;;;;;;;;5028562;28;19917;-73
2024/01/18 01:07:44;;;;;;;;;;;;;;;;;;5028379;28;20228;-72
2024/01/18 01:10:09;;;;;;;;;;;;;;;;;;5032357;28;19921;-73
2024/01/18 01:12:34;;;;;;;;;;;;;;;;;;5041462;28;20366;-72
2024/01/18 01:14:59;;;;;;;;;;;;;;;;;;5026479;28;19921;-73
2024/01/18 01:17:24;;;;;;;;;;;;;;;;;;5032715;28;20282;-72
2024/01/18 01:19:50;;;;;;;;;;;;;;;;;;5032231;28;19924;-72
2024/01/18 01:22:15;;;;;;;;;;;;;;;;;;5032101;28;20134;-73
2024/01/18 01:24:40;;;;;;;;;;;;;;;;;;5032645;28;20300;-73
2024/01/18 01:27:06;;;;;;;;;;;;;;;;;;5038820;28;19928;-72
2024/01/18 01:29:31;;;;;;;;;;;;;;;;;;5048264;28;20019;-73
2024/01/18 01:31:56;;;;;;;;;;;;;;;;;;5033321;28;19923;-72
2024/01/18 01:34:21;;;;;;;;;;;;;;;;;;5030833;28;19928;-73
2024/01/18 01:36:46;;;;;;;;;;;;;;;;;;5031930;28;20347;-73
2024/01/18 01:39:11;;;;;;;;;;;;;;;;;;5039076;28;20200;-72
2024/01/18 01:41:36;;;;;;;;;;;;;;;;;;5032499;28;19929;-72
2024/01/18 01:44:01;;;;;;;;;;;;;;;;;;5032294;28;19924;-72
2024/01/18 01:46:26;;;;;;;;;;;;;;;;;;5030286;28;19917;-73
2024/01/18 01:48:51;;;;;;;;;;;;;;;;;;5031639;28;19924;-73
2024/01/18 01:51:17;;;;;;;;;;;;;;;;;;5030414;28;19921;-72
2024/01/18 01:53:42;;;;;;;;;;;;;;;;;;5040756;28;19924;-72
2024/01/18 01:56:07;;;;;;;;;;;;;;;;;;5039172;28;20389;-73
2024/01/18 01:58:32;;;;;;;;;;;;;;;;;;5031742;28;19917;-73
2024/01/18 02:00:57;;;;;;;;;;;;;;;;;;5030636;28;20199;-73
2024/01/18 02:03:22;;;;;;;;;;;;;;;;;;5032317;28;19966;-72
2024/01/18 02:05:47;;;;;;;;;;;;;;;;;;5031732;28;20077;-73
2024/01/18 02:08:12;;;;;;;;;;;;;;;;;;5030796;28;19967;-73
2024/01/18 02:10:37;;;;;;;;;;;;;;;;;;5040164;28;20012;-73
2024/01/18 02:13:03;;;;;;;;;;;;;;;;;;5046955;28;19921;-73
2024/01/18 02:15:28;;;;;;;;;;;;;;;;;;5026458;28;19960;-73
2024/01/18 02:17:53;;;;;;;;;;;;;;;;;;5029818;28;19921;-72
2024/01/18 02:20:18;;;;;;;;;;;;;;;;;;5029961;28;19917;-73
2024/01/18 02:22:43;;;;;;;;;;;;;;;;;;5031214;28;19932;-73
2024/01/18 02:25:08;;;;;;;;;;;;;;;;;;5031527;28;19917;-72
2024/01/18 02:27:33;;;;;;;;;;;;;;;;;;5031733;28;20012;-73
2024/01/18 02:29:58;;;;;;;;;;;;;;;;;;5029177;28;19925;-73
2024/01/18 02:32:24;;;;;;;;;;;;;;;;;;5039159;28;19970;-73
2024/01/18 02:34:49;;;;;;;;;;;;;;;;;;5029567;28;19925;-72
2024/01/18 02:37:14;;;;;;;;;;;;;;;;;;5031194;28;20409;-73
2024/01/18 02:39:39;;;;;;;;;;;;;;;;;;5038777;28;20355;-73
2024/01/18 02:42:04;;;;;;;;;;;;;;;;;;5031231;28;19925;-73
2024/01/18 02:44:29;;;;;;;;;;;;;;;;;;5032822;28;19924;-72
2024/01/18 02:46:54;;;;;;;;;;;;;;;;;;5031335;28;19917;-73
2024/01/18 02:49:19;;;;;;;;;;;;;;;;;;5031351;28;19925;-73
2024/01/18 02:51:44;;;;;;;;;;;;;;;;;;5031056;28;19921;-73
2024/01/18 02:54:09;;;;;;;;;;;;;;;;;;5030207;28;19921;-73
2024/01/18 02:56:35;;;;;;;;;;;;;;;;;;5030307;28;20008;-73
2024/01/18 02:59:00;;;;;;;;;;;;;;;;;;5041033;28;20370;-73
2024/01/18 03:01:25;;;;;;;;;;;;;;;;;;5037419;28;19917;-73
2024/01/18 03:03:50;;;;;;;;;;;;;;;;;;5040726;28;19921;-73
2024/01/18 03:06:15;;;;;;;;;;;;;;;;;;5042010;28;19917;-73
2024/01/18 03:08:40;;;;;;;;;;;;;;;;;;5030693;28;19999;-73
2024/01/18 03:11:05;;;;;;;;;;;;;;;;;;5030561;28;19944;-73
2024/01/18 03:13:31;;;;;;;;;;;;;;;;;;5030663;28;20314;-73
2024/01/18 03:15:56;;;;;;;;;;;;;;;;;;5030630;28;19969;-73
2024/01/18 03:18:21;;;;;;;;;;;;;;;;;;5024257;28;19937;-73
2024/01/18 03:20:46;;;;;;;;;;;;;;;;;;5030493;28;19945;-73
2024/01/18 03:23:11;;;;;;;;;;;;;;;;;;5031062;28;20336;-73
2024/01/18 03:25:37;;;;;;;;;;;;;;;;;;5039441;28;20337;-73
2024/01/18 03:28:02;;;;;;;;;;;;;;;;;;5047319;28;19923;-73
2024/01/18 03:30:27;;;;;;;;;;;;;;;;;;5029914;28;19925;-73
2024/01/18 03:32:52;;;;;;;;;;;;;;;;;;5037343;28;19971;-73
2024/01/18 03:35:18;;;;;;;;;;;;;;;;;;5029148;28;19939;-73
2024/01/18 03:37:43;;;;;;;;;;;;;;;;;;5030531;28;19923;-73
2024/01/18 03:40:08;;;;;;;;;;;;;;;;;;5037921;28;19922;-73
2024/01/18 03:42:33;;;;;;;;;;;;;;;;;;5026905;28;19983;-73
2024/01/18 03:44:58;;;;;;;;;;;;;;;;;;5031609;28;19925;-73
2024/01/18 03:47:23;;;;;;;;;;;;;;;;;;5028313;28;19925;-73
2024/01/18 03:49:49;;;;;;;;;;;;;;;;;;5029462;28;20374;-73
2024/01/18 03:52:16;;;;;;;;;;;;;;;;;;5029734;28;19950;-73
2024/01/18 03:54:41;;;;;;;;;;;;;;;;;;5029906;28;19921;-72
2024/01/18 03:57:06;;;;;;;;;;;;;;;;;;5028152;28;19925;-72
2024/01/18 03:59:31;;;;;;;;;;;;;;;;;;5029496;28;20378;-73
2024/01/18 04:01:56;;;;;;;;;;;;;;;;;;5029329;28;19918;-72
2024/01/18 04:04:22;;;;;;;;;;;;;;;;;;5027921;28;20171;-73
2024/01/18 04:06:47;;;;;;;;;;;;;;;;;;5037418;28;19929;-73
2024/01/18 04:09:12;;;;;;;;;;;;;;;;;;5029116;28;19921;-73
2024/01/18 04:11:37;;;;;;;;;;;;;;;;;;5029739;28;19923;-73
2024/01/18 04:14:02;;;;;;;;;;;;;;;;;;5029198;28;19971;-73
2024/01/18 04:16:29;;;;;;;;;;;;;;;;;;5026998;28;20059;-73
2024/01/18 04:18:54;;;;;;;;;;;;;;;;;;5036863;28;19921;-73
2024/01/18 04:21:19;;;;;;;;;;;;;;;;;;5029488;28;19928;-73
2024/01/18 04:23:44;;;;;;;;;;;;;;;;;;5029410;28;19983;-73
2024/01/18 04:26:09;;;;;;;;;;;;;;;;;;5027753;28;19921;-73
2024/01/18 04:28:34;;;;;;;;;;;;;;;;;;5027637;28;19925;-73
2024/01/18 04:31:00;;;;;;;;;;;;;;;;;;5030226;28;20000;-73
2024/01/18 04:33:25;;;;;;;;;;;;;;;;;;5034719;28;19916;-73
2024/01/18 04:35:50;;;;;;;;;;;;;;;;;;5031157;28;19917;-73
2024/01/18 04:38:15;;;;;;;;;;;;;;;;;;5036545;28;19982;-73
2024/01/18 04:40:40;;;;;;;;;;;;;;;;;;5027315;28;19989;-73
2024/01/18 04:43:05;;;;;;;;;;;;;;;;;;5028707;28;19921;-72
2024/01/18 04:45:30;;;;;;;;;;;;;;;;;;5037072;28;20289;-72
2024/01/18 04:47:56;;;;;;;;;;;;;;;;;;5040022;28;19925;-73
2024/01/18 04:50:24;;;;;;;;;;;;;;;;;;5027719;28;19940;-72
2024/01/18 04:52:50;;;;;;;;;;;;;;;;;;5029221;28;20008;-72
2024/01/18 04:55:15;;;;;;;;;;;;;;;;;;5028910;28;20047;-72
2024/01/18 04:57:40;;;;;;;;;;;;;;;;;;5028171;28;20351;-73
2024/01/18 05:00:09;;;;;;;;;;;;;;;;;;5027823;28;19921;-74
2024/01/18 05:02:35;;;;;;;;;;;;;;;;;;5035325;28;20340;-73
2024/01/18 05:05:00;;;;;;;;;;;;;;;;;;5030564;28;20302;-73
2024/01/18 05:07:25;;;;;;;;;;;;;;;;;;5028841;28;19917;-72
2024/01/18 05:09:50;;;;;;;;;;;;;;;;;;5029089;28;19921;-73
2024/01/18 05:12:15;;;;;;;;;;;;;;;;;;5029165;28;19917;-73
2024/01/18 05:14:40;;;;;;;;;;;;;;;;;;5035123;28;19921;-72
2024/01/18 05:17:10;;;;;;;;;;;;;;;;;;5028000;28;20016;-72
2024/01/18 05:19:35;;;;;;;;;;;;;;;;;;5028301;28;19927;-72
2024/01/18 05:22:00;;;;;;;;;;;;;;;;;;5036938;28;20003;-73
2024/01/18 05:24:25;;;;;;;;;;;;;;;;;;5028716;28;20235;-72
2024/01/18 05:26:50;;;;;;;;;;;;;;;;;;5036267;28;19961;-73
2024/01/18 05:29:16;;;;;;;;;;;;;;;;;;5029135;28;20378;-73
2024/01/18 05:31:41;;;;;;;;;;;;;;;;;;5035867;28;19928;-73
2024/01/18 05:34:06;;;;;;;;;;;;;;;;;;5027824;28;19918;-73
2024/01/18 05:36:31;;;;;;;;;;;;;;;;;;5028793;28;19917;-73
2024/01/18 05:38:56;;;;;;;;;;;;;;;;;;5027712;28;19975;-73
2024/01/18 05:41:21;;;;;;;;;;;;;;;;;;5028573;28;20496;-73
2024/01/18 05:43:46;;;;;;;;;;;;;;;;;;5030151;28;19917;-73
2024/01/18 05:46:11;;;;;;;;;;;;;;;;;;5035705;28;19923;-73
2024/01/18 05:48:36;;;;;;;;;;;;;;;;;;5028292;28;19921;-73
2024/01/18 05:51:01;;;;;;;;;;;;;;;;;;5035029;28;19925;-73
2024/01/18 05:53:27;;;;;;;;;;;;;;;;;;5028744;28;19921;-73
2024/01/18 05:55:52;;;;;;;;;;;;;;;;;;5029828;28;19921;-73
2024/01/18 05:58:26;;;;;;;;;;;;;;;;;;5048416;28;19921;-73
2024/01/18 06:00:52;;;;;;;;;;;;;;;;;;5045611;28;20386;-74
2024/01/18 06:03:17;;;;;;;;;;;;;;;;;;5033957;28;19917;-74
2024/01/18 06:05:42;;;;;;;;;;;;;;;;;;5030105;28;19922;-73
2024/01/18 06:08:07;;;;;;;;;;;;;;;;;;5046890;28;19917;-74
2024/01/18 06:10:33;;;;;;;;;;;;;;;;;;5029280;28;19928;-73
2024/01/18 06:12:59;;;;;;;;;;;;;;;;;;5027790;28;19921;-73
2024/01/18 06:15:24;;;;;;;;;;;;;;;;;;5026326;28;19947;-74
2024/01/18 06:17:50;;;;;;;;;;;;;;;;;;5029847;28;19982;-74
2024/01/18 06:20:15;;;;;;;;;;;;;;;;;;5030020;28;20106;-74
2024/01/18 06:22:40;;;;;;;;;;;;;;;;;;5028758;28;20039;-73
2024/01/18 06:25:05;;;;;;;;;;;;;;;;;;5045687;28;20007;-74
2024/01/18 06:27:31;;;;;;;;;;;;;;;;;;5027109;28;19986;-74
2024/01/18 06:29:57;;;;;;;;;;;;;;;;;;5044961;28;19925;-74
2024/01/18 06:32:22;;;;;;;;;;;;;;;;;;5026169;28;20274;-74
2024/01/18 06:34:48;;;;;;;;;;;;;;;;;;5036175;28;19978;-74
2024/01/18 06:37:13;;;;;;;;;;;;;;;;;;5029133;28;20130;-74
2024/01/18 06:39:38;;;;;;;;;;;;;;;;;;5037644;28;20019;-74
2024/01/18 06:42:07;;;;;;;;;;;;;;;;;;5047951;28;19916;-74
2024/01/18 06:44:32;;;;;;;;;;;;;;;;;;5032357;28;20003;-74
2024/01/18 06:46:58;;;;;;;;;;;;;;;;;;5022602;28;20333;-74
2024/01/18 06:49:24;;;;;;;;;;;;;;;;;;5033413;28;20421;-74
2024/01/18 06:51:49;;;;;;;;;;;;;;;;;;5022773;28;19921;-74
2024/01/18 06:54:14;;;;;;;;;;;;;;;;;;5027819;28;20266;-74
2024/01/18 06:56:39;;;;;;;;;;;;;;;;;;5030913;28;20291;-74
2024/01/18 06:59:05;;;;;;;;;;;;;;;;;;5028668;28;19921;-74
2024/01/18 07:01:30;;;;;;;;;;;;;;;;;;5035471;28;19928;-74
2024/01/18 07:03:55;;;;;;;;;;;;;;;;;;5034076;28;20264;-74
2024/01/18 07:06:20;;;;;;;;;;;;;;;;;;5029733;28;20401;-74
2024/01/18 07:08:45;;;;;;;;;;;;;;;;;;5039975;28;19921;-74
2024/01/18 07:11:10;;;;;;;;;;;;;;;;;;5030307;28;19925;-74
2024/01/18 07:13:36;;;;;;;;;;;;;;;;;;5030782;28;20291;-74
2024/01/18 07:16:01;;;;;;;;;;;;;;;;;;5039110;28;20309;-74
2024/01/18 07:18:26;;;;;;;;;;;;;;;;;;5028709;28;19938;-74
2024/01/18 07:20:51;;;;;;;;;;;;;;;;;;5030402;28;20283;-74
2024/01/18 07:23:17;;;;;;;;;;;;;;;;;;5030242;28;19921;-74
2024/01/18 07:25:43;;;;;;;;;;;;;;;;;;5026924;28;19929;-74
2024/01/18 07:28:08;;;;;;;;;;;;;;;;;;5028710;28;19921;-74
2024/01/18 07:30:33;;;;;;;;;;;;;;;;;;5034858;28;19980;-74
2024/01/18 07:32:58;;;;;;;;;;;;;;;;;;5034268;28;19921;-74
2024/01/18 07:35:23;;;;;;;;;;;;;;;;;;5030289;28;19971;-74
2024/01/18 07:37:48;;;;;;;;;;;;;;;;;;5030319;28;19964;-74
2024/01/18 07:40:14;;;;;;;;;;;;;;;;;;5030060;28;19943;-74
2024/01/18 07:42:39;;;;;;;;;;;;;;;;;;5028988;28;19925;-74
2024/01/18 07:45:05;;;;;;;;;;;;;;;;;;5033033;28;20003;-73
2024/01/18 07:47:30;;;;;;;;;;;;;;;;;;5028874;28;19925;-73
2024/01/18 07:49:56;;;;;;;;;;;;;;;;;;5030345;28;19995;-73
2024/01/18 07:52:21;;;;;;;;;;;;;;;;;;5039341;28;19931;-74
2024/01/18 07:54:49;;;;;;;;;;;;;;;;;;5034920;28;19921;-73
2024/01/18 07:57:14;;;;;;;;;;;;;;;;;;5029538;28;20011;-72
2024/01/18 07:59:39;;;;;;;;;;;;;;;;;;5029608;28;20011;-67
2024/01/18 08:02:04;;;;;;;;;;;;;;;;;;5028222;28;19928;-68
2024/01/18 08:04:32;;;;;;;;;;;;;;;;;;5029684;28;20336;-67
2024/01/18 08:06:57;;;;;;;;;;;;;;;;;;5029971;28;20400;-68
2024/01/18 08:09:22;;;;;;;;;;;;;;;;;;5029396;28;20371;-67
2024/01/18 08:11:47;;;;;;;;;;;;;;;;;;5029379;28;19917;-72
2024/01/18 08:14:13;;;;;;;;;;;;;;;;;;5029196;28;19921;-73
2024/01/18 08:16:38;;;;;;;;;;;;;;;;;;5030241;28;19925;-73
2024/01/18 08:19:03;;;;;;;;;;;;;;;;;;5029314;28;19917;-73
2024/01/18 08:21:28;;;;;;;;;;;;;;;;;;5033043;28;20015;-73
2024/01/18 08:23:54;;;;;;;;;;;;;;;;;;5036969;28;19927;-73
2024/01/18 08:26:20;;;;;;;;;;;;;;;;;;5030695;28;19918;-73
2024/01/18 08:28:45;;;;;;;;;;;;;;;;;;5037042;28;19925;-73
2024/01/18 08:31:11;;;;;;;;;;;;;;;;;;5028871;28;19936;-73
2024/01/18 08:33:36;;;;;;;;;;;;;;;;;;5029331;28;20008;-73
2024/01/18 08:36:01;;;;;;;;;;;;;;;;;;5045891;28;19921;-73
2024/01/18 08:38:26;;;;;;;;;;;;;;;;;;5028422;28;20348;-72
2024/01/18 08:40:51;;;;;;;;;;;;;;;;;;5030180;28;19925;-74
2024/01/18 08:43:17;;;;;;;;;;;;;;;;;;5029343;28;20357;-68
2024/01/18 08:45:42;;;;;;;;;;;;;;;;;;5040553;28;19924;-68
2024/01/18 08:48:07;;;;;;;;;;;;;;;;;;5028542;28;19944;-68
2024/01/18 08:50:32;;;;;;;;;;;;;;;;;;5029278;28;20007;-68
2024/01/18 08:52:57;;;;;;;;;;;;;;;;;;5029443;28;19917;-68
2024/01/18 08:55:23;;;;;;;;;;;;;;;;;;5029210;28;20005;-68
2024/01/18 08:57:49;;;;;;;;;;;;;;;;;;5028796;28;20515;-68
2024/01/18 09:00:17;;;;;;;;;;;;;;;;;;5028052;28;19960;-72
2024/01/18 09:02:42;;;;;;;;;;;;;;;;;;5030015;28;19921;-72
2024/01/18 09:05:07;;;;;;;;;;;;;;;;;;5029814;28;20023;-72
2024/01/18 09:07:32;;;;;;;;;;;;;;;;;;5029992;28;20290;-72
2024/01/18 09:09:58;;;;;;;;;;;;;;;;;;5029462;28;19959;-72
2024/01/18 09:12:23;;;;;;;;;;;;;;;;;;5037692;28;19924;-72
2024/01/18 09:14:48;;;;;;;;;;;;;;;;;;5022181;28;20096;-72
2024/01/18 09:17:13;;;;;;;;;;;;;;;;;;5045233;28;20306;-72
2024/01/18 09:19:38;;;;;;;;;;;;;;;;;;5043741;28;19948;-72
2024/01/18 09:22:03;;;;;;;;;;;;;;;;;;5027002;28;20445;-72
2024/01/18 09:24:28;;;;;;;;;;;;;;;;;;5047907;28;19925;-72
2024/01/18 09:26:53;;;;;;;;;;;;;;;;;;5037362;28;19943;-72
2024/01/18 09:29:18;;;;;;;;;;;;;;;;;;5041201;28;19997;-72
2024/01/18 09:31:43;;;;;;;;;;;;;;;;;;5037679;28;19952;-72
2024/01/18 09:34:09;;;;;;;;;;;;;;;;;;5052087;28;19917;-73
2024/01/18 09:36:34;;;;;;;;;;;;;;;;;;5051962;28;19916;-72
2024/01/18 09:38:59;;;;;;;;;;;;;;;;;;5050506;28;19924;-72
2024/01/18 09:41:27;;;;;;;;;;;;;;;;;;5039526;28;19928;-72
2024/01/18 09:43:54;;;;;;;;;;;;;;;;;;5042628;28;19917;-72
2024/01/18 09:46:19;;;;;;;;;;;;;;;;;;5040067;28;20304;-72
2024/01/18 09:48:44;;;;;;;;;;;;;;;;;;5041491;28;20313;-72
2024/01/18 09:51:09;;;;;;;;;;;;;;;;;;5031672;28;19921;-72
2024/01/18 09:53:36;;;;;;;;;;;;;;;;;;5042990;28;19924;-73
2024/01/18 09:56:01;;;;;;;;;;;;;;;;;;5043304;28;19927;-73
2024/01/18 09:58:27;;;;;;;;;;;;;;;;;;5048661;28;19917;-72
2024/01/18 10:00:52;;;;;;;;;;;;;;;;;;5030812;28;19928;-72
2024/01/18 10:03:17;;;;;;;;;;;;;;;;;;5033596;28;19955;-72
2024/01/18 10:05:42;;;;;;;;;;;;;;;;;;5037755;28;19960;-72
2024/01/18 10:08:07;;;;;;;;;;;;;;;;;;5043854;28;20492;-73
2024/01/18 10:10:32;;;;;;;;;;;;;;;;;;5042976;28;19921;-73
2024/01/18 10:12:58;;;;;;;;;;;;;;;;;;5042137;28;20342;-72
2024/01/18 10:15:23;;;;;;;;;;;;;;;;;;5038797;28;20389;-72
2024/01/18 10:17:48;;;;;;;;;;;;;;;;;;5031606;28;19987;-72
2024/01/18 10:20:13;;;;;;;;;;;;;;;;;;5030729;28;20381;-73
2024/01/18 10:22:38;;;;;;;;;;;;;;;;;;5042312;28;19921;-72
2024/01/18 10:25:04;;;;;;;;;;;;;;;;;;5043296;28;19943;-73
2024/01/18 10:27:29;;;;;;;;;;;;;;;;;;5039833;28;20439;-73
2024/01/18 10:29:54;;;;;;;;;;;;;;;;;;5033540;28;19925;-73
2024/01/18 10:32:19;;;;;;;;;;;;;;;;;;5047302;28;20031;-73
2024/01/18 10:34:45;;;;;;;;;;;;;;;;;;5051123;28;20386;-73
2024/01/18 10:37:10;;;;;;;;;;;;;;;;;;5042684;28;19924;-73
2024/01/18 10:39:35;;;;;;;;;;;;;;;;;;5030583;28;20020;-73
2024/01/18 10:42:01;;;;;;;;;;;;;;;;;;5038746;28;19921;-73
2024/01/18 10:44:26;;;;;;;;;;;;;;;;;;5048347;28;19916;-73
2024/01/18 10:46:51;;;;;;;;;;;;;;;;;;5050776;28;19925;-73
2024/01/18 10:49:16;;;;;;;;;;;;;;;;;;5035303;28;19921;-73
2024/01/18 10:51:41;;;;;;;;;;;;;;;;;;5030247;28;19925;-73
2024/01/18 10:54:06;;;;;;;;;;;;;;;;;;5035187;28;20317;-74
2024/01/18 10:56:31;;;;;;;;;;;;;;;;;;5050140;28;19966;-73
2024/01/18 10:58:56;;;;;;;;;;;;;;;;;;5038301;28;19921;-73
2024/01/18 11:01:22;;;;;;;;;;;;;;;;;;5038592;28;20034;-73
2024/01/18 11:03:47;;;;;;;;;;;;;;;;;;5038631;28;19917;-73
2024/01/18 11:06:12;;;;;;;;;;;;;;;;;;5046925;28;19924;-74
2024/01/18 11:08:37;;;;;;;;;;;;;;;;;;5042831;28;20170;-73
2024/01/18 11:11:02;;;;;;;;;;;;;;;;;;5046040;28;19921;-73
2024/01/18 11:13:28;;;;;;;;;;;;;;;;;;5031486;28;19975;-73
2024/01/18 11:15:53;;;;;;;;;;;;;;;;;;5031071;28;20035;-73
2024/01/18 11:18:18;;;;;;;;;;;;;;;;;;5036947;28;19969;-73
2024/01/18 11:20:43;;;;;;;;;;;;;;;;;;5039187;28;19928;-73
2024/01/18 11:23:08;;;;;;;;;;;;;;;;;;5034405;28;19921;-73
2024/01/18 11:25:33;;;;;;;;;;;;;;;;;;5032138;28;19917;-73
2024/01/18 11:28:00;;;;;;;;;;;;;;;;;;5043221;28;20202;-73
2024/01/18 11:30:25;;;;;;;;;;;;;;;;;;5041729;28;19948;-73
2024/01/18 11:32:50;;;;;;;;;;;;;;;;;;5042166;28;19920;-73
2024/01/18 11:35:15;;;;;;;;;;;;;;;;;;5035116;28;19924;-74
2024/01/18 11:37:40;;;;;;;;;;;;;;;;;;5036105;28;19928;-73
2024/01/18 11:40:06;;;;;;;;;;;;;;;;;;5031693;28;19921;-74
2024/01/18 11:42:31;;;;;;;;;;;;;;;;;;5035262;28;19928;-73
2024/01/18 11:44:56;;;;;;;;;;;;;;;;;;5038124;28;19925;-73
2024/01/18 11:47:21;;;;;;;;;;;;;;;;;;5032550;28;19975;-73
2024/01/18 11:49:46;;;;;;;;;;;;;;;;;;5035338;28;19925;-73
2024/01/18 11:52:11;;;;;;;;;;;;;;;;;;5040423;28;19917;-74
2024/01/18 11:54:36;;;;;;;;;;;;;;;;;;5043936;28;19921;-73
2024/01/18 11:57:01;;;;;;;;;;;;;;;;;;5036948;28;19966;-74
2024/01/18 11:59:26;;;;;;;;;;;;;;;;;;5047650;28;19916;-73
2024/01/18 12:01:51;;;;;;;;;;;;;;;;;;5032273;28;19928;-73
2024/01/18 12:04:16;;;;;;;;;;;;;;;;;;5034359;28;20382;-74
2024/01/18 12:06:42;;;;;;;;;;;;;;;;;;5035373;28;19921;-73
2024/01/18 12:09:08;;;;;;;;;;;;;;;;;;5032203;28;19921;-73
2024/01/18 12:11:33;;;;;;;;;;;;;;;;;;5042728;28;19921;-73
2024/01/18 12:13:58;;;;;;;;;;;;;;;;;;5038688;28;19917;-73
2024/01/18 12:16:23;;;;;;;;;;;;;;;;;;5044608;28;20374;-74
2024/01/18 12:18:48;;;;;;;;;;;;;;;;;;5038305;28;20006;-73
2024/01/18 12:21:16;;;;;;;;;;;;;;;;;;5035445;28;19960;-73
2024/01/18 12:23:42;;;;;;;;;;;;;;;;;;5036658;28;19928;-73
2024/01/18 12:26:07;;;;;;;;;;;;;;;;;;5034564;28;19917;-74
2024/01/18 12:28:32;;;;;;;;;;;;;;;;;;5037995;28;19916;-73
2024/01/18 12:31:01;;;;;;;;;;;;;;;;;;5043262;28;19931;-73
2024/01/18 12:33:26;;;;;;;;;;;;;;;;;;5030584;28;19921;-72
2024/01/18 12:35:51;;;;;;;;;;;;;;;;;;5030335;28;19920;-67
2024/01/18 12:38:16;;;;;;;;;;;;;;;;;;5029376;28;19924;-67
2024/01/18 12:40:41;;;;;;;;;;;;;;;;;;5029688;28;20349;-66
2024/01/18 12:43:06;;;;;;;;;;;;;;;;;;5028189;28;20099;-66
2024/01/18 12:45:32;;;;;;;;;;;;;;;;;;5029899;28;19929;-74
2024/01/18 12:47:57;;;;;;;;;;;;;;;;;;5029051;28;19921;-76
2024/01/18 12:50:22;;;;;;;;;;;;;;;;;;5028594;28;20019;-77
2024/01/18 12:52:48;;;;;;;;;;;;;;;;;;5033574;28;19986;-76
2024/01/18 12:55:13;;;;;;;;;;;;;;;;;;5033955;28;20011;-76
2024/01/18 12:57:38;;;;;;;;;;;;;;;;;;5042936;28;20027;-76
2024/01/18 13:00:03;;;;;;;;;;;;;;;;;;5057643;28;19917;-76
2024/01/18 13:02:29;;;;;;;;;;;;;;;;;;5055697;28;20263;-76
2024/01/18 13:04:54;;;;;;;;;;;;;;;;;;5053303;28;19952;-76
2024/01/18 13:07:19;;;;;;;;;;;;;;;;;;5041355;28;20258;-76
2024/01/18 13:09:44;;;;;;;;;;;;;;;;;;5037184;28;19920;-76
2024/01/18 13:12:09;;;;;;;;;;;;;;;;;;5037127;28;19921;-76
2024/01/18 13:14:37;;;;;;;;;;;;;;;;;;5032159;28;19960;-76
2024/01/18 13:17:03;;;;;;;;;;;;;;;;;;5032837;28;19921;-76
2024/01/18 13:19:28;;;;;;;;;;;;;;;;;;5033740;28;19923;-76
2024/01/18 13:21:53;;;;;;;;;;;;;;;;;;5039988;28;20371;-76
2024/01/18 13:24:19;;;;;;;;;;;;;;;;;;5039630;28;20460;-76
2024/01/18 13:26:44;;;;;;;;;;;;;;;;;;5041797;28;20015;-76
2024/01/18 13:29:09;;;;;;;;;;;;;;;;;;5035635;28;19924;-76
2024/01/18 13:31:34;;;;;;;;;;;;;;;;;;5042176;28;19928;-76
2024/01/18 13:34:00;;;;;;;;;;;;;;;;;;5047964;28;20370;-76
2024/01/18 13:36:25;;;;;;;;;;;;;;;;;;5033986;28;19929;-76
2024/01/18 13:38:50;;;;;;;;;;;;;;;;;;5045059;28;19928;-76
2024/01/18 13:41:15;;;;;;;;;;;;;;;;;;5050235;28;19917;-76
2024/01/18 13:43:40;;;;;;;;;;;;;;;;;;5050747;28;19943;-76
2024/01/18 13:46:05;;;;;;;;;;;;;;;;;;5046448;28;20090;-76
2024/01/18 13:48:30;;;;;;;;;;;;;;;;;;5048989;28;20327;-77
2024/01/18 13:50:57;;;;;;;;;;;;;;;;;;5052085;28;19921;-77
2024/01/18 13:53:22;;;;;;;;;;;;;;;;;;5044092;28;20003;-76
2024/01/18 13:55:48;;;;;;;;;;;;;;;;;;5043378;28;20050;-77
2024/01/18 13:58:13;;;;;;;;;;;;;;;;;;5047694;28;19927;-77
2024/01/18 14:00:38;;;;;;;;;;;;;;;;;;5043438;28;20267;-76
2024/01/18 14:03:05;;;;;;;;;;;;;;;;;;5041904;28;19928;-77
2024/01/18 14:05:31;;;;;;;;;;;;;;;;;;5048555;28;19921;-76
2024/01/18 14:07:56;;;;;;;;;;;;;;;;;;5035459;28;20355;-77
2024/01/18 14:10:21;;;;;;;;;;;;;;;;;;5050425;28;19929;-77
2024/01/18 14:12:46;;;;;;;;;;;;;;;;;;5040494;28;19917;-76
2024/01/18 14:15:11;;;;;;;;;;;;;;;;;;5037757;28;19921;-77
2024/01/18 14:17:36;;;;;;;;;;;;;;;;;;5041309;28;20366;-76
2024/01/18 14:20:05;;;;;;;;;;;;;;;;;;5036637;28;19920;-76
2024/01/18 14:22:30;;;;;;;;;;;;;;;;;;5032843;28;19986;-76
2024/01/18 14:24:55;;;;;;;;;;;;;;;;;;5033973;28;19921;-76
2024/01/18 14:27:20;;;;;;;;;;;;;;;;;;5041219;28;20373;-76
2024/01/18 14:29:46;;;;;;;;;;;;;;;;;;5041423;28;19932;-76
2024/01/18 14:32:11;;;;;;;;;;;;;;;;;;5037352;28;20389;-76
2024/01/18 14:34:36;;;;;;;;;;;;;;;;;;5041830;28;20004;-76
2024/01/18 14:37:02;;;;;;;;;;;;;;;;;;5035973;28;20508;-76
2024/01/18 14:39:27;;;;;;;;;;;;;;;;;;5034988;28;19976;-76
2024/01/18 14:41:52;;;;;;;;;;;;;;;;;;5031077;28;19917;-76
2024/01/18 14:44:17;;;;;;;;;;;;;;;;;;5036759;28;19917;-76
2024/01/18 14:46:42;;;;;;;;;;;;;;;;;;5049376;28;19917;-76
2024/01/18 14:49:07;;;;;;;;;;;;;;;;;;5039428;28;19917;-76
2024/01/18 14:51:33;;;;;;;;;;;;;;;;;;5039454;28;19927;-76
2024/01/18 14:53:58;;;;;;;;;;;;;;;;;;5035339;28;20428;-76
2024/01/18 14:56:23;;;;;;;;;;;;;;;;;;5035257;28;19928;-76
2024/01/18 14:58:48;;;;;;;;;;;;;;;;;;5030815;28;20007;-75
2024/01/18 15:01:13;;;;;;;;;;;;;;;;;;5032192;28;19984;-75
2024/01/18 15:03:43;;;;;;;;;;;;;;;;;;5042526;28;19920;-75
2024/01/18 15:06:14;;;;;;;;;;;;;;;;;;5037089;28;19917;-76
2024/01/18 15:08:39;;;;;;;;;;;;;;;;;;5040148;28;19924;-75
2024/01/18 15:11:04;;;;;;;;;;;;;;;;;;5037269;28;19925;-75
2024/01/18 15:13:29;;;;;;;;;;;;;;;;;;5033511;28;19971;-75
2024/01/18 15:15:54;;;;;;;;;;;;;;;;;;5037752;28;20021;-75
2024/01/18 15:18:19;;;;;;;;;;;;;;;;;;5036626;28;19924;-75
2024/01/18 15:20:45;;;;;;;;;;;;;;;;;;5040243;28;19925;-75
2024/01/18 15:23:10;;;;;;;;;;;;;;;;;;5038323;28;20274;-75
2024/01/18 15:25:35;;;;;;;;;;;;;;;;;;5038620;28;19917;-75
2024/01/18 15:28:00;;;;;;;;;;;;;;;;;;5030712;28;19921;-75
2024/01/18 15:30:25;;;;;;;;;;;;;;;;;;5045505;28;19946;-76
2024/01/18 15:32:52;;;;;;;;;;;;;;;;;;5030253;28;21484;-75
2024/01/18 15:35:17;;;;;;;;;;;;;;;;;;5043606;28;20004;-75
2024/01/18 15:37:43;;;;;;;;;;;;;;;;;;5041555;28;19917;-75
2024/01/18 15:40:09;;;;;;;;;;;;;;;;;;5039754;28;19924;-75
2024/01/18 15:42:34;;;;;;;;;;;;;;;;;;5041489;28;19924;-75
2024/01/18 15:44:59;;;;;;;;;;;;;;;;;;5032117;28;20028;-75
2024/01/18 15:47:24;;;;;;;;;;;;;;;;;;5045431;28;19971;-75
2024/01/18 15:49:49;;;;;;;;;;;;;;;;;;5043111;28;20410;-75
2024/01/18 15:52:14;;;;;;;;;;;;;;;;;;5041787;28;19928;-75
2024/01/18 15:54:40;;;;;;;;;;;;;;;;;;5035112;28;20382;-75
2024/01/18 15:57:08;;;;;;;;;;;;;;;;;;5030801;28;20008;-75
2024/01/18 15:59:33;;;;;;;;;;;;;;;;;;5029624;28;19921;-74
2024/01/18 16:01:58;;;;;;;;;;;;;;;;;;5029457;28;19918;-75
2024/01/18 16:04:23;;;;;;;;;;;;;;;;;;5029474;28;19928;-75
2024/01/18 16:06:48;;;;;;;;;;;;;;;;;;5031885;28;20512;-74
2024/01/18 16:09:13;;;;;;;;;;;;;;;;;;5043826;28;19983;-75
2024/01/18 16:11:38;;;;;;;;;;;;;;;;;;5029370;28;19921;-75
2024/01/18 16:14:03;;;;;;;;;;;;;;;;;;5029276;28;19917;-75
2024/01/18 16:16:29;;;;;;;;;;;;;;;;;;5037021;28;20331;-75
2024/01/18 16:18:55;;;;;;;;;;;;;;;;;;5048970;28;19917;-75
2024/01/18 16:21:20;;;;;;;;;;;;;;;;;;5040981;28;19927;-75
2024/01/18 16:23:45;;;;;;;;;;;;;;;;;;5039512;28;20011;-75
2024/01/18 16:26:10;;;;;;;;;;;;;;;;;;5041987;28;19997;-75
2024/01/18 16:28:36;;;;;;;;;;;;;;;;;;5032811;28;19921;-75
2024/01/18 16:31:01;;;;;;;;;;;;;;;;;;5037590;28;19925;-75
2024/01/18 16:33:26;;;;;;;;;;;;;;;;;;5036243;28;20335;-75